Primrose, Iowa
Current Conditions -  °F | °C
As of 9:35 PM on Saturday 22 Nov 2014 (Local Time) from KFSW Reporting Station
Overcast Overcast  
Wind Chill: 54°   Ceiling: 1200
Heat Index: 54°   Visibility: 10mi
Dew Point: 50°   Wind: 13mph
Humidity: 88%   Direction: 180°S
Pressure: 29.78"   Gusts: NA
Location:  40.6822°N, 91.6042°W
Report Text: KFSW 230335Z AUTO 18011KT 10SM OVC012 12/10 A2978 RMK AO2
Loading
Personal Weather Stations






























Interactive Weather Map New forecast layout! Learn more

10-Day Weather Forecast

Advertisements
Track Severe Weather on mobile